Time;durP1;ratioP1;P1;durP2;ratioP2;P2;SDS_P1;SDS_P2;PMS_P1;PMS_P2;Temp;Humidity;BMP_temperature;BMP_pressure;BME280_temperature;BME280_humidity;BME280_pressure;Samples;Min_cycle;Max_cycle;Signal;HPM_P1;HPM_P2
2023/03/23 00:00:54;;;;;;;10.27;5.05;;;11.20;99.90;;;;;;4955032;28;20049;-77
2023/03/23 00:03:21;;;;;;;9.23;5.30;;;11.20;99.90;;;;;;4995357;28;20586;-76
2023/03/23 00:05:51;;;;;;;6.25;4.10;;;11.20;99.90;;;;;;4986650;28;20038;-76
2023/03/23 00:08:21;;;;;;;8.48;4.50;;;11.20;99.90;;;;;;4970022;28;20050;-79
2023/03/23 00:10:56;;;;;;;6.95;4.47;;;11.20;99.90;;;;;;4975277;28;20042;-76
2023/03/23 00:13:24;;;;;;;7.22;4.40;;;11.20;99.90;;;;;;4969571;28;20041;-76
2023/03/23 00:15:54;;;;;;;6.68;4.00;;;11.20;99.90;;;;;;4972321;28;21469;-79
2023/03/23 00:18:21;;;;;;;4.22;3.05;;;11.20;99.90;;;;;;4974211;28;20053;-78
2023/03/23 00:20:53;;;;;;;8.18;4.00;;;11.20;99.90;;;;;;4969618;28;20053;-78
2023/03/23 00:23:22;;;;;;;7.32;4.53;;;11.20;99.90;;;;;;4992639;28;20042;-76
2023/03/23 00:25:57;;;;;;;6.15;3.33;;;11.20;99.90;;;;;;4971113;28;20049;-79
2023/03/23 00:28:26;;;;;;;8.57;3.85;;;11.20;99.90;;;;;;4967682;28;20045;-79
2023/03/23 00:31:05;;;;;;;7.80;4.68;;;11.20;99.90;;;;;;4960697;28;20030;-79
2023/03/23 00:33:37;;;;;;;5.88;4.05;;;11.20;99.90;;;;;;4971623;28;20042;-76
2023/03/23 00:36:05;;;;;;;6.10;4.28;;;11.30;99.90;;;;;;4970623;28;20037;-79
2023/03/23 00:38:31;;;;;;;5.35;3.58;;;11.30;99.90;;;;;;4977410;28;20041;-77
2023/03/23 00:41:02;;;;;;;6.40;4.22;;;11.30;99.90;;;;;;4952314;28;20555;-78
2023/03/23 00:43:30;;;;;;;6.65;3.15;;;11.30;99.90;;;;;;4956643;28;20064;-76
2023/03/23 00:46:00;;;;;;;4.50;2.78;;;11.30;99.90;;;;;;4955373;28;20042;-79
2023/03/23 00:48:28;;;;;;;5.07;3.63;;;11.30;99.90;;;;;;4971874;28;20058;-78
2023/03/23 00:50:55;;;;;;;10.30;3.92;;;11.30;99.90;;;;;;4960045;28;20033;-76
2023/03/23 00:53:22;;;;;;;7.90;4.15;;;11.30;99.90;;;;;;4952257;28;20046;-78
2023/03/23 00:55:49;;;;;;;7.88;3.25;;;11.30;99.90;;;;;;4987931;28;20069;-79
2023/03/23 00:58:16;;;;;;;8.02;3.63;;;11.30;99.90;;;;;;4976902;28;20046;-75
2023/03/23 01:00:42;;;;;;;7.50;4.22;;;11.30;99.90;;;;;;4968795;28;20068;-75
2023/03/23 01:03:11;;;;;;;7.45;4.32;;;11.30;99.90;;;;;;4971202;28;20052;-78
2023/03/23 01:05:39;;;;;;;9.57;4.80;;;11.30;99.90;;;;;;4956002;28;20034;-79
2023/03/23 01:08:06;;;;;;;5.05;3.28;;;11.30;99.90;;;;;;4952401;28;20042;-75
2023/03/23 01:10:33;;;;;;;5.75;3.33;;;11.30;99.90;;;;;;4958282;28;20057;-77
2023/03/23 01:13:00;;;;;;;5.28;3.38;;;11.30;99.90;;;;;;4970163;28;20037;-76
2023/03/23 01:15:28;;;;;;;4.70;2.90;;;11.30;99.90;;;;;;4957996;28;20033;-78
2023/03/23 01:17:55;;;;;;;3.85;3.22;;;11.30;99.90;;;;;;4979734;28;20216;-78
2023/03/23 01:20:22;;;;;;;4.65;3.20;;;11.30;99.90;;;;;;4972528;28;20054;-78
2023/03/23 01:22:48;;;;;;;9.82;4.85;;;11.30;99.90;;;;;;4984065;28;20788;-75
2023/03/23 01:25:14;;;;;;;6.78;3.28;;;11.30;99.90;;;;;;4968187;28;20046;-77
2023/03/23 01:27:41;;;;;;;5.95;3.60;;;11.20;99.90;;;;;;4969881;28;20042;-74
2023/03/23 01:30:11;;;;;;;8.45;4.00;;;11.20;99.90;;;;;;4943235;28;20046;-75
2023/03/23 01:32:39;;;;;;;7.68;4.22;;;11.20;99.90;;;;;;4968468;28;21444;-75
2023/03/23 01:35:06;;;;;;;5.45;3.00;;;11.20;99.90;;;;;;4988180;28;21557;-75
2023/03/23 01:37:33;;;;;;;5.78;3.55;;;11.20;99.90;;;;;;4962240;28;20409;-78
2023/03/23 01:40:03;;;;;;;5.35;3.10;;;11.20;99.90;;;;;;4951868;28;21640;-78
2023/03/23 01:42:34;;;;;;;5.97;4.13;;;11.20;99.90;;;;;;4967068;28;20033;-78
2023/03/23 01:45:23;;;;;;;5.63;3.00;;;11.20;99.90;;;;;;4982097;28;20038;-77
2023/03/23 01:47:55;;;;;;;6.38;3.55;;;11.20;99.90;;;;;;4950573;28;20052;-78
2023/03/23 01:50:24;;;;;;;5.35;3.58;;;11.20;99.90;;;;;;4957030;28;20053;-76
2023/03/23 01:52:56;;;;;;;5.70;3.05;;;11.20;99.90;;;;;;4950164;28;20575;-78
2023/03/23 01:55:26;;;;;;;3.85;2.80;;;11.20;99.90;;;;;;4976527;28;20053;-78
2023/03/23 01:57:55;;;;;;;5.93;3.40;;;11.20;99.90;;;;;;4960358;28;20042;-76
2023/03/23 02:00:22;;;;;;;4.03;2.75;;;11.20;99.90;;;;;;4965028;28;20034;-77
2023/03/23 02:02:54;;;;;;;4.68;3.13;;;11.20;99.90;;;;;;4967360;28;20037;-78
2023/03/23 02:05:34;;;;;;;5.22;3.42;;;11.20;99.90;;;;;;4952115;28;21422;-77
2023/03/23 02:08:08;;;;;;;4.22;2.78;;;11.20;99.90;;;;;;4967489;28;20034;-75
2023/03/23 02:10:36;;;;;;;7.47;3.90;;;11.20;99.90;;;;;;4927127;28;20516;-77
2023/03/23 02:13:06;;;;;;;6.00;3.47;;;11.20;99.90;;;;;;4971440;28;20034;-78
2023/03/23 02:15:41;;;;;;;4.18;2.72;;;11.30;99.90;;;;;;4977050;28;20054;-77
2023/03/23 02:18:23;;;;;;;6.80;3.72;;;11.30;99.90;;;;;;4976940;28;20037;-76
2023/03/23 02:21:23;;;;;;;4.82;3.60;;;11.30;99.90;;;;;;4930705;28;20061;-75
2023/03/23 02:24:12;;;;;;;5.40;3.28;;;11.40;99.90;;;;;;4967735;28;20053;-78
2023/03/23 02:26:57;;;;;;;4.57;3.22;;;11.30;99.90;;;;;;4968281;28;20038;-76
2023/03/23 02:29:48;;;;;;;6.93;4.32;;;11.40;99.90;;;;;;4945795;28;20038;-76
2023/03/23 02:32:40;;;;;;;4.35;3.03;;;11.40;99.90;;;;;;4966669;28;20056;-77
2023/03/23 02:35:12;;;;;;;8.25;4.00;;;11.40;99.90;;;;;;4976480;28;20049;-76
2023/03/23 02:37:47;;;;;;;6.43;3.28;;;11.40;99.90;;;;;;4977539;28;20722;-76
2023/03/23 02:40:20;;;;;;;6.03;3.55;;;11.40;99.90;;;;;;4959416;28;21641;-78
2023/03/23 02:42:51;;;;;;;6.03;3.60;;;11.40;99.90;;;;;;4968588;28;20060;-75
2023/03/23 02:45:20;;;;;;;3.85;2.83;;;11.50;99.90;;;;;;4951079;28;20708;-74
2023/03/23 02:47:51;;;;;;;5.43;3.88;;;11.50;99.90;;;;;;4952567;28;21215;-78
2023/03/23 02:50:21;;;;;;;4.97;3.15;;;11.50;99.90;;;;;;4973858;28;20802;-76
2023/03/23 02:52:49;;;;;;;3.50;2.45;;;11.50;99.90;;;;;;4989214;28;20041;-75
2023/03/23 02:55:17;;;;;;;5.25;2.85;;;11.50;99.90;;;;;;4960522;28;20042;-77
2023/03/23 02:57:46;;;;;;;4.18;2.67;;;11.50;99.90;;;;;;4989992;28;20053;-75
2023/03/23 03:00:16;;;;;;;7.43;3.20;;;11.60;99.90;;;;;;4942733;28;20045;-75
2023/03/23 03:02:53;;;;;;;5.10;2.88;;;11.60;99.90;;;;;;4967548;28;20058;-78
2023/03/23 03:05:34;;;;;;;5.00;3.58;;;11.60;99.90;;;;;;4970071;28;20049;-78
2023/03/23 03:08:12;;;;;;;6.30;3.50;;;11.60;99.90;;;;;;4971242;28;20049;-77
2023/03/23 03:10:50;;;;;;;7.45;3.50;;;11.60;99.90;;;;;;4961561;28;20041;-78
2023/03/23 03:13:22;;;;;;;4.72;2.97;;;11.60;99.90;;;;;;4995518;28;21391;-78
2023/03/23 03:15:54;;;;;;;4.80;3.75;;;11.60;99.90;;;;;;4979230;28;20081;-78
2023/03/23 03:18:24;;;;;;;;;;;11.60;99.90;;;;;;4972710;28;20033;-76
2023/03/23 03:20:57;;;;;;;6.25;3.20;;;11.60;99.90;;;;;;4960592;28;19921;-77
2023/03/23 03:23:25;;;;;;;5.45;2.67;;;11.60;99.90;;;;;;4954687;28;20571;-76
2023/03/23 03:25:57;;;;;;;4.15;3.10;;;11.60;99.90;;;;;;4954828;28;20419;-77
2023/03/23 03:28:31;;;;;;;6.38;3.20;;;11.60;99.90;;;;;;4986864;28;20025;-78
2023/03/23 03:31:01;;;;;;;7.00;3.45;;;11.60;99.90;;;;;;4963052;28;20041;-78
2023/03/23 03:33:30;;;;;;;7.00;3.45;;;11.60;99.90;;;;;;4983161;28;20037;-76
2023/03/23 03:36:00;;;;;;;5.30;3.50;;;11.60;99.90;;;;;;4980219;28;20042;-77
2023/03/23 03:38:27;;;;;;;6.18;3.78;;;11.60;99.90;;;;;;4960378;28;20046;-76
2023/03/23 03:40:55;;;;;;;5.10;3.25;;;11.60;99.90;;;;;;4960625;28;20053;-77
2023/03/23 03:43:23;;;;;;;4.45;3.40;;;11.60;99.90;;;;;;4969537;28;20056;-78
2023/03/23 03:45:50;;;;;;;4.90;2.38;;;11.60;99.90;;;;;;4954485;28;20042;-78
2023/03/23 03:48:16;;;;;;;4.82;3.08;;;11.60;99.90;;;;;;4953015;28;20049;-75
2023/03/23 03:50:43;;;;;;;4.85;2.88;;;11.60;99.90;;;;;;4970078;28;20096;-75
2023/03/23 03:53:12;;;;;;;5.68;3.25;;;11.60;99.90;;;;;;4963570;28;20667;-80
2023/03/23 03:55:44;;;;;;;5.82;3.42;;;11.50;99.90;;;;;;4972155;28;20042;-77
2023/03/23 03:58:12;;;;;;;4.60;3.03;;;11.50;99.90;;;;;;4970483;28;20041;-76
2023/03/23 04:01:09;;;;;;;5.63;3.92;;;11.50;99.90;;;;;;4962451;28;20056;-77
2023/03/23 04:03:38;;;;;;;4.47;2.92;;;11.60;99.90;;;;;;4969518;28;20048;-76
2023/03/23 04:06:09;;;;;;;5.63;3.17;;;11.60;99.90;;;;;;4968281;28;20049;-78
2023/03/23 04:08:41;;;;;;;4.88;3.15;;;11.50;99.90;;;;;;4994046;28;20288;-76
2023/03/23 04:11:09;;;;;;;4.50;3.42;;;11.60;99.90;;;;;;4986122;28;20030;-77
2023/03/23 04:13:36;;;;;;;4.07;2.80;;;11.60;99.90;;;;;;4973218;28;21604;-76
2023/03/23 04:16:03;;;;;;;4.22;2.42;;;11.60;99.90;;;;;;4968994;28;20420;-77
2023/03/23 04:18:32;;;;;;;4.25;3.08;;;11.60;99.90;;;;;;4970286;28;20788;-79
2023/03/23 04:21:03;;;;;;;2.97;2.63;;;11.60;99.90;;;;;;4979601;28;20045;-77
2023/03/23 04:23:33;;;;;;;9.32;3.28;;;11.60;99.90;;;;;;4969002;28;20045;-78
2023/03/23 04:26:03;;;;;;;4.80;2.47;;;11.70;99.90;;;;;;4974358;28;20397;-79
2023/03/23 04:28:36;;;;;;;3.05;2.15;;;11.70;99.90;;;;;;4979899;28;20049;-76
2023/03/23 04:31:25;;;;;;;4.55;2.95;;;11.70;99.90;;;;;;4973094;28;20037;-78
2023/03/23 04:33:56;;;;;;;8.70;3.17;;;11.70;99.90;;;;;;4968909;28;20049;-78
2023/03/23 04:36:26;;;;;;;4.97;2.83;;;11.70;99.90;;;;;;4969054;28;20045;-76
2023/03/23 04:38:59;;;;;;;8.68;3.10;;;11.70;99.90;;;;;;4950935;28;20887;-77
2023/03/23 04:41:26;;;;;;;3.78;2.83;;;11.70;99.90;;;;;;4965301;28;20615;-76
2023/03/23 04:44:17;;;;;;;3.97;2.70;;;11.70;99.90;;;;;;4956100;28;20080;-75
2023/03/23 04:46:49;;;;;;;6.68;2.75;;;11.70;99.90;;;;;;4993714;28;20038;-76
2023/03/23 04:49:20;;;;;;;6.20;2.75;;;11.70;99.90;;;;;;4973377;28;20425;-77
2023/03/23 04:51:50;;;;;;;6.13;2.15;;;11.70;99.90;;;;;;4969377;28;20050;-77
2023/03/23 04:54:24;;;;;;;6.10;2.13;;;11.80;99.90;;;;;;4954792;28;20050;-77
2023/03/23 04:56:54;;;;;;;6.07;2.45;;;11.80;99.90;;;;;;4988315;28;20034;-79
2023/03/23 04:59:21;;;;;;;4.28;2.05;;;11.80;99.90;;;;;;4964164;28;20029;-76
2023/03/23 05:01:59;;;;;;;8.80;3.10;;;11.80;99.90;;;;;;4966379;28;20041;-76
2023/03/23 05:04:27;;;;;;;8.45;3.13;;;11.80;99.90;;;;;;4954845;28;20046;-79
2023/03/23 05:07:10;;;;;;;6.95;2.00;;;11.80;99.90;;;;;;4995570;28;20042;-77
2023/03/23 05:09:46;;;;;;;6.18;2.00;;;11.80;99.90;;;;;;4974416;28;20046;-79
2023/03/23 05:12:12;;;;;;;4.05;1.90;;;11.80;99.90;;;;;;4967191;28;20046;-79
2023/03/23 05:14:48;;;;;;;4.40;1.52;;;11.80;99.90;;;;;;4952460;28;20072;-77
2023/03/23 05:17:18;;;;;;;6.65;1.80;;;11.80;99.90;;;;;;4968453;28;20532;-77
2023/03/23 05:19:47;;;;;;;6.43;1.67;;;11.80;99.90;;;;;;4961836;28;20042;-78
2023/03/23 05:22:38;;;;;;;6.70;1.75;;;11.80;99.90;;;;;;4966564;28;20061;-77
2023/03/23 05:25:10;;;;;;;6.55;1.10;;;11.80;99.90;;;;;;4974501;28;20047;-77
2023/03/23 05:27:42;;;;;;;5.30;1.30;;;11.80;99.90;;;;;;4992035;28;20045;-78
2023/03/23 05:30:29;;;;;;;9.18;1.63;;;11.80;99.90;;;;;;4964267;28;20053;-79
2023/03/23 05:32:57;;;;;;;4.35;1.63;;;11.80;99.90;;;;;;4966885;28;20038;-79
2023/03/23 05:35:42;;;;;;;3.72;0.95;;;11.80;99.90;;;;;;4968767;28;20034;-79
2023/03/23 05:38:08;;;;;;;13.13;1.77;;;11.80;99.90;;;;;;4950848;28;20049;-78
2023/03/23 05:40:37;;;;;;;3.90;1.02;;;11.80;99.90;;;;;;4943203;28;20049;-79
2023/03/23 05:43:16;;;;;;;7.35;1.35;;;11.80;99.90;;;;;;4971995;28;20049;-77
2023/03/23 05:46:01;;;;;;;5.38;1.20;;;11.80;99.90;;;;;;4963690;28;20413;-78
2023/03/23 05:48:28;;;;;;;6.50;1.20;;;11.80;99.90;;;;;;4974952;28;20036;-78
2023/03/23 05:50:54;;;;;;;8.98;1.88;;;11.80;99.90;;;;;;4958868;28;20041;-80
2023/03/23 05:53:23;;;;;;;5.72;1.35;;;11.80;99.90;;;;;;4983376;28;20038;-78
2023/03/23 05:55:50;;;;;;;5.40;1.17;;;11.80;99.90;;;;;;4965860;28;20050;-78
2023/03/23 05:58:33;;;;;;;4.75;1.00;;;11.80;99.90;;;;;;4951755;28;20033;-80
2023/03/23 06:01:00;;;;;;;8.48;1.02;;;11.90;99.90;;;;;;4957635;28;20057;-79
2023/03/23 06:03:29;;;;;;;6.50;0.82;;;11.80;99.90;;;;;;4977228;28;20034;-78
2023/03/23 06:06:12;;;;;;;5.13;0.93;;;11.90;99.90;;;;;;4977044;28;20034;-78
2023/03/23 06:08:50;;;;;;;8.18;1.50;;;11.80;99.90;;;;;;4968628;28;20038;-78
2023/03/23 06:11:18;;;;;;;8.45;1.17;;;11.90;99.90;;;;;;4965563;28;20041;-80
2023/03/23 06:13:58;;;;;;;4.95;1.00;;;11.90;99.90;;;;;;4967491;28;20030;-79
2023/03/23 06:16:25;;;;;;;3.88;0.85;;;11.90;99.90;;;;;;4967701;28;20040;-77
2023/03/23 06:18:57;;;;;;;8.43;1.00;;;11.90;99.90;;;;;;4950125;28;20615;-78
2023/03/23 06:21:29;;;;;;;5.05;0.80;;;12.00;99.90;;;;;;4966948;28;21245;-77
2023/03/23 06:24:32;;;;;;;6.32;0.90;;;12.00;99.90;;;;;;4977748;28;20044;-78
2023/03/23 06:26:59;;;;;;;6.20;1.10;;;12.00;99.90;;;;;;4959427;28;20045;-80
2023/03/23 06:29:26;;;;;;;6.63;1.35;;;12.10;99.90;;;;;;4947235;28;20046;-79
2023/03/23 06:32:02;;;;;;;7.13;1.25;;;12.10;99.90;;;;;;4963215;28;20052;-77
2023/03/23 06:34:30;;;;;;;4.60;0.77;;;12.10;99.90;;;;;;4967832;28;20050;-79
2023/03/23 06:37:15;;;;;;;4.30;0.85;;;12.20;99.90;;;;;;4970879;28;20041;-80
2023/03/23 06:40:21;;;;;;;7.57;1.00;;;12.20;99.90;;;;;;4960951;28;20041;-78
2023/03/23 06:42:56;;;;;;;5.00;0.52;;;12.20;99.90;;;;;;4982017;28;20846;-81
2023/03/23 06:45:41;;;;;;;3.28;0.70;;;12.20;99.90;;;;;;4982151;28;20065;-81
2023/03/23 06:48:40;;;;;;;8.10;1.58;;;12.20;99.90;;;;;;4961532;28;20047;-78
2023/03/23 06:51:08;;;;;;;6.15;1.50;;;12.20;99.90;;;;;;4979508;28;20397;-79
2023/03/23 06:53:36;;;;;;;9.15;2.00;;;12.20;99.90;;;;;;4971249;28;20396;-79
2023/03/23 06:56:05;;;;;;;8.05;1.50;;;12.20;99.90;;;;;;4969162;28;20045;-78
2023/03/23 06:58:33;;;;;;;10.68;4.38;;;12.20;99.90;;;;;;4971144;28;20045;-78
2023/03/23 07:01:00;;;;;;;6.47;1.23;;;12.20;99.90;;;;;;4953768;28;20030;-79
2023/03/23 07:03:36;;;;;;;4.68;1.10;;;12.20;99.90;;;;;;4978417;28;20053;-78
2023/03/23 07:06:03;;;;;;;6.93;1.40;;;12.20;99.90;;;;;;4948720;28;20069;-77
2023/03/23 07:08:34;;;;;;;7.63;1.38;;;12.20;99.90;;;;;;4972264;28;20049;-78
2023/03/23 07:11:01;;;;;;;7.70;1.05;;;12.20;99.90;;;;;;4978963;28;20042;-77
2023/03/23 07:13:29;;;;;;;5.38;1.17;;;12.20;99.90;;;;;;4974770;28;20041;-78
2023/03/23 07:16:00;;;;;;;8.38;1.35;;;12.20;99.90;;;;;;4959738;28;20045;-76
2023/03/23 07:18:27;;;;;;;7.97;1.15;;;12.20;99.90;;;;;;4975825;28;20042;-77
2023/03/23 07:20:55;;;;;;;5.65;1.00;;;12.30;99.90;;;;;;4975012;28;20437;-75
2023/03/23 07:23:29;;;;;;;5.35;0.93;;;12.30;99.90;;;;;;4983276;28;20062;-77
2023/03/23 07:26:05;;;;;;;6.80;1.45;;;12.40;99.90;;;;;;4976344;28;20045;-79
2023/03/23 07:28:42;;;;;;;10.57;1.20;;;12.40;99.90;;;;;;4958604;28;20037;-79
2023/03/23 07:31:21;;;;;;;6.80;0.97;;;12.40;99.90;;;;;;4968574;28;20060;-82
2023/03/23 07:33:48;;;;;;;5.72;1.13;;;12.50;99.90;;;;;;4973648;28;20033;-78
2023/03/23 07:36:14;;;;;;;6.50;1.40;;;12.50;99.90;;;;;;4973880;28;20041;-80
2023/03/23 07:38:41;;;;;;;7.40;1.38;;;12.60;99.90;;;;;;4963746;28;20037;-81
2023/03/23 07:41:08;;;;;;;8.57;1.85;;;12.60;99.90;;;;;;4976073;28;20040;-81
2023/03/23 07:43:36;;;;;;;11.57;5.28;;;12.60;99.90;;;;;;4962210;28;20048;-81
2023/03/23 07:46:21;;;;;;;6.78;0.95;;;12.70;99.90;;;;;;4973561;28;20061;-78
2023/03/23 07:48:58;;;;;;;4.25;0.80;;;12.60;99.90;;;;;;4954800;28;20054;-82
2023/03/23 07:51:32;;;;;;;5.30;0.63;;;12.60;99.90;;;;;;4967111;28;20065;-79
2023/03/23 07:53:59;;;;;;;7.32;0.93;;;12.60;99.90;;;;;;4956258;28;20389;-78
2023/03/23 07:56:48;;;;;;;4.00;0.40;;;12.60;99.90;;;;;;4977825;28;20037;-78
2023/03/23 07:59:18;;;;;;;4.65;0.70;;;12.50;99.90;;;;;;4993342;28;20812;-80
2023/03/23 08:01:45;;;;;;;4.65;0.73;;;12.50;99.90;;;;;;4977616;28;20048;-77
2023/03/23 08:04:27;;;;;;;3.67;0.50;;;12.40;99.90;;;;;;4986526;28;20938;-79
2023/03/23 08:07:16;;;;;;;4.55;0.75;;;12.30;99.90;;;;;;4959996;28;20046;-78
2023/03/23 08:09:49;;;;;;;3.53;0.60;;;12.20;99.90;;;;;;4949132;28;20045;-76
2023/03/23 08:12:35;;;;;;;3.15;0.95;;;12.10;99.90;;;;;;4974061;28;20060;-76
2023/03/23 08:15:21;;;;;;;4.28;0.73;;;12.10;99.90;;;;;;4956575;28;20048;-79
2023/03/23 08:17:50;;;;;;;5.38;1.13;;;12.00;99.90;;;;;;4980412;28;20080;-76
2023/03/23 08:20:35;;;;;;;5.75;1.42;;;12.00;99.90;;;;;;4987868;28;20034;-76
2023/03/23 08:23:05;;;;;;;4.43;1.00;;;12.00;99.90;;;;;;4972790;28;20041;-75
2023/03/23 08:25:48;;;;;;;2.28;0.70;;;12.10;99.90;;;;;;4971209;28;20469;-75
2023/03/23 08:28:24;;;;;;;4.47;1.10;;;12.10;99.90;;;;;;4970474;28;20748;-75
2023/03/23 08:30:56;;;;;;;;;;;12.20;99.90;;;;;;4979638;28;20040;-77
2023/03/23 08:33:42;;;;;;;3.03;0.70;;;12.20;99.90;;;;;;4970686;28;20470;-78
2023/03/23 08:36:28;;;;;;;5.78;1.17;;;12.20;99.90;;;;;;4975894;28;20645;-81
2023/03/23 08:39:07;;;;;;;4.15;1.08;;;12.30;99.90;;;;;;4992824;28;20057;-78
2023/03/23 08:41:52;;;;;;;6.40;1.00;;;12.30;99.90;;;;;;4972588;28;20053;-78
2023/03/23 08:44:41;;;;;;;7.53;0.95;;;12.30;99.90;;;;;;4985390;28;20358;-79
2023/03/23 08:47:26;;;;;;;5.65;0.80;;;12.40;99.90;;;;;;4973879;28;20389;-75
2023/03/23 08:50:15;;;;;;;4.60;0.77;;;12.40;99.90;;;;;;4949448;28;20042;-76
2023/03/23 08:53:11;;;;;;;4.15;1.13;;;12.50;99.90;;;;;;4987957;28;20057;-78
2023/03/23 08:55:48;;;;;;;2.08;0.73;;;12.60;99.90;;;;;;4981425;28;20034;-79
2023/03/23 08:58:15;;;;;;;4.43;0.90;;;12.70;99.90;;;;;;4981840;28;20049;-80
2023/03/23 09:01:06;;;;;;;5.10;1.30;;;12.80;99.90;;;;;;4968497;28;20045;-75
2023/03/23 09:04:11;;;;;;;5.15;0.73;;;12.90;99.90;;;;;;4972613;28;20060;-79
2023/03/23 09:07:03;;;;;;;4.13;0.97;;;12.90;99.90;;;;;;4956939;28;20512;-79
2023/03/23 09:09:30;;;;;;;4.97;1.10;;;12.90;99.90;;;;;;4959258;28;20312;-77
2023/03/23 09:11:56;;;;;;;4.95;0.60;;;12.80;99.90;;;;;;4974170;28;20390;-79
2023/03/23 09:14:22;;;;;;;5.07;0.63;;;12.80;99.90;;;;;;4983986;28;20049;-78
2023/03/23 09:16:49;;;;;;;3.45;0.65;;;12.90;99.90;;;;;;4997189;28;20045;-76
2023/03/23 09:19:15;;;;;;;5.05;0.70;;;12.90;99.90;;;;;;4972563;28;20038;-78
2023/03/23 09:21:42;;;;;;;2.45;0.57;;;12.90;99.90;;;;;;4956260;28;20057;-78
2023/03/23 09:24:11;;;;;;;5.22;0.63;;;12.90;99.90;;;;;;4958179;28;20041;-79
2023/03/23 09:26:38;;;;;;;3.92;0.60;;;13.10;99.90;;;;;;4988107;28;20580;-81
2023/03/23 09:29:04;;;;;;;2.30;0.40;;;13.10;99.90;;;;;;4970934;28;20057;-80
2023/03/23 09:31:31;;;;;;;3.17;0.70;;;13.20;99.90;;;;;;4971983;28;20038;-80
2023/03/23 09:33:59;;;;;;;2.40;0.40;;;13.30;99.90;;;;;;4981795;28;20033;-79
2023/03/23 09:36:25;;;;;;;2.55;0.40;;;13.30;99.90;;;;;;4981559;28;20033;-78
2023/03/23 09:38:52;;;;;;;5.28;0.50;;;13.40;99.90;;;;;;4975258;28;20058;-81
2023/03/23 09:41:53;;;;;;;4.82;0.55;;;13.50;99.90;;;;;;4969527;28;20041;-78
2023/03/23 09:44:55;;;;;;;3.72;0.50;;;13.60;99.90;;;;;;4953750;28;20159;-78
2023/03/23 09:48:03;;;;;;;4.50;0.85;;;13.80;99.90;;;;;;4988547;28;20701;-77
2023/03/23 09:50:32;;;;;;;7.68;0.90;;;13.90;99.90;;;;;;4952177;28;20057;-81
2023/03/23 09:53:22;;;;;;;6.47;0.80;;;13.90;99.90;;;;;;4982126;28;20050;-80
2023/03/23 09:55:49;;;;;;;4.47;0.80;;;13.90;99.90;;;;;;4980022;28;20077;-79
2023/03/23 09:58:23;;;;;;;5.38;0.60;;;14.00;99.90;;;;;;4971054;28;20034;-80
2023/03/23 10:01:02;;;;;;;6.57;0.70;;;14.30;99.90;;;;;;4978996;28;20297;-79
2023/03/23 10:03:37;;;;;;;2.95;0.60;;;14.50;99.90;;;;;;4985813;28;20056;-79
2023/03/23 10:06:04;;;;;;;4.75;0.80;;;14.70;99.90;;;;;;4971317;28;20041;-78
2023/03/23 10:08:32;;;;;;;7.50;1.17;;;14.80;99.90;;;;;;4958062;28;20046;-80
2023/03/23 10:11:29;;;;;;;8.10;1.95;;;14.90;99.90;;;;;;4988852;28;20038;-79
2023/03/23 10:14:08;;;;;;;5.43;0.88;;;15.20;99.90;;;;;;4960412;28;20049;-79
2023/03/23 10:16:39;;;;;;;6.47;0.82;;;15.20;99.90;;;;;;4970168;28;20061;-80
2023/03/23 10:19:26;;;;;;;8.63;1.23;;;15.20;99.90;;;;;;4985175;28;20042;-78
2023/03/23 10:22:01;;;;;;;11.93;1.05;;;15.00;99.90;;;;;;4984378;28;20283;-77
2023/03/23 10:24:36;;;;;;;6.20;0.80;;;15.10;99.90;;;;;;4969893;28;20054;-82
2023/03/23 10:27:26;;;;;;;8.07;1.13;;;15.20;99.90;;;;;;4971273;28;20033;-80
2023/03/23 10:30:02;;;;;;;8.50;1.20;;;15.30;99.90;;;;;;4988861;28;20046;-80
2023/03/23 10:32:51;;;;;;;6.45;1.20;;;15.50;99.90;;;;;;4964511;28;20045;-79
2023/03/23 10:35:25;;;;;;;5.97;0.70;;;15.70;99.90;;;;;;4973208;28;20113;-81
2023/03/23 10:38:03;;;;;;;6.07;1.17;;;15.90;99.90;;;;;;4986257;28;20045;-81
2023/03/23 10:40:30;;;;;;;7.40;1.15;;;16.00;99.90;;;;;;4963506;28;20496;-79
2023/03/23 10:42:58;;;;;;;6.30;0.90;;;16.20;99.90;;;;;;4970374;28;20053;-79
2023/03/23 10:45:32;;;;;;;5.75;0.95;;;16.50;99.90;;;;;;4969368;28;20038;-78
2023/03/23 10:48:01;;;;;;;6.40;1.00;;;16.90;99.90;;;;;;4977753;28;20666;-79
2023/03/23 10:50:32;;;;;;;5.95;1.15;;;17.50;99.90;;;;;;4955443;28;20057;-78
2023/03/23 10:53:00;;;;;;;7.43;1.20;;;18.10;99.90;;;;;;4978110;28;20747;-80
2023/03/23 10:55:40;;;;;;;6.90;1.23;;;18.60;99.90;;;;;;4969786;28;20050;-80
2023/03/23 10:58:11;;;;;;;5.53;1.20;;;18.80;99.90;;;;;;4970317;28;20033;-80
2023/03/23 11:00:46;;;;;;;9.18;1.15;;;18.70;99.90;;;;;;4964245;28;20025;-81
2023/03/23 11:03:13;;;;;;;8.27;1.33;;;18.50;99.90;;;;;;4955029;28;23012;-81
2023/03/23 11:06:18;;;;;;;5.15;1.05;;;18.30;99.90;;;;;;4988330;28;20517;-79
2023/03/23 11:08:49;;;;;;;7.85;1.17;;;18.20;99.90;;;;;;4964407;28;20041;-80
2023/03/23 11:11:23;;;;;;;5.45;1.05;;;18.00;99.90;;;;;;4987905;28;20030;-80
2023/03/23 11:13:56;;;;;;;5.88;1.00;;;17.70;99.90;;;;;;4955680;28;20603;-81
2023/03/23 11:16:23;;;;;;;;;;;17.70;99.90;;;;;;4984564;28;20033;-82
2023/03/23 11:18:49;;;;;;;4.60;0.80;;;18.10;99.90;;;;;;4970332;28;19917;-81
2023/03/23 11:21:16;;;;;;;7.82;1.00;;;18.40;99.90;;;;;;4965935;28;20056;-84
2023/03/23 11:23:49;;;;;;;8.95;1.58;;;19.10;99.90;;;;;;4986845;28;20496;-88
2023/03/23 11:26:23;;;;;;;7.80;1.35;;;19.60;99.90;;;;;;4984487;28;20022;-81
2023/03/23 11:28:58;;;;;;;6.47;1.85;;;20.10;99.90;;;;;;4984086;28;20038;-81
2023/03/23 11:31:38;;;;;;;5.13;0.98;;;20.60;99.90;;;;;;4974553;28;20034;-79
2023/03/23 11:34:12;;;;;;;5.05;1.00;;;20.70;99.90;;;;;;4972184;28;20637;-80
2023/03/23 11:36:46;;;;;;;4.05;0.65;;;21.10;99.90;;;;;;4972471;28;20042;-80
2023/03/23 11:39:45;;;;;;;5.80;1.13;;;21.60;99.90;;;;;;4985177;28;20049;-79
2023/03/23 11:42:28;;;;;;;8.18;1.98;;;22.00;99.90;;;;;;4955952;28;20042;-80
2023/03/23 11:45:03;;;;;;;6.15;0.88;;;21.70;99.90;;;;;;4990472;28;20042;-79
2023/03/23 11:47:40;;;;;;;3.55;0.90;;;21.80;99.90;;;;;;4981124;28;20038;-87
2023/03/23 11:50:18;;;;;;;6.20;1.00;;;21.30;99.90;;;;;;4988464;28;20429;-82
2023/03/23 11:52:52;;;;;;;6.25;1.15;;;20.50;99.90;;;;;;4973784;28;20034;-80
2023/03/23 11:55:34;;;;;;;6.40;1.13;;;19.60;99.90;;;;;;4988440;28;20485;-83
2023/03/23 11:58:07;;;;;;;3.97;0.95;;;19.00;99.90;;;;;;4972488;28;20388;-81
2023/03/23 12:00:34;;;;;;;8.98;1.35;;;18.50;99.90;;;;;;4983090;28;20029;-82
2023/03/23 12:03:11;;;;;;;8.15;1.20;;;18.20;99.90;;;;;;4989373;28;20686;-78
2023/03/23 12:05:50;;;;;;;5.95;0.73;;;17.90;99.90;;;;;;4996193;28;20037;-77
2023/03/23 12:08:36;;;;;;;6.53;0.95;;;17.60;99.90;;;;;;4965385;28;20040;-77
2023/03/23 12:11:12;;;;;;;2.75;0.63;;;17.30;99.90;;;;;;4950843;28;20038;-78
2023/03/23 12:13:55;;;;;;;4.47;0.70;;;17.20;99.90;;;;;;4985621;28;20049;-77
2023/03/23 12:16:42;;;;;;;10.48;0.90;;;17.10;99.90;;;;;;4970767;28;21175;-79
2023/03/23 12:20:12;;;;;;;2.85;0.55;;;16.90;99.90;;;;;;4970827;28;20069;-78
2023/03/23 12:22:42;;;;;;;6.07;0.82;;;16.70;99.90;;;;;;4949300;28;20053;-75
2023/03/23 12:25:27;;;;;;;4.68;0.80;;;16.40;99.90;;;;;;4994543;28;20073;-75
2023/03/23 12:28:15;;;;;;;8.57;1.42;;;16.20;99.90;;;;;;4980359;28;20030;-75
2023/03/23 12:31:04;;;;;;;5.40;0.82;;;16.40;99.90;;;;;;4970943;28;20052;-82
2023/03/23 12:33:56;;;;;;;4.65;0.95;;;16.70;99.90;;;;;;4973044;28;20042;-80
2023/03/23 12:36:28;;;;;;;6.32;1.35;;;17.00;99.90;;;;;;4971441;28;20606;-79
2023/03/23 12:39:34;;;;;;;5.50;1.35;;;17.30;99.90;;;;;;4953450;28;20477;-79
2023/03/23 12:42:16;;;;;;;5.18;0.90;;;17.30;99.90;;;;;;4967795;28;20038;-76
2023/03/23 12:45:01;;;;;;;4.05;0.82;;;17.10;99.90;;;;;;4973993;28;20496;-77
2023/03/23 12:47:45;;;;;;;4.30;0.80;;;16.90;99.90;;;;;;4980096;28;20492;-77
2023/03/23 12:50:40;;;;;;;4.75;0.88;;;16.70;99.90;;;;;;4972375;28;20053;-77
2023/03/23 12:53:26;;;;;;;5.55;0.90;;;16.50;99.90;;;;;;4970543;28;20040;-78
2023/03/23 12:56:10;;;;;;;6.18;0.93;;;16.30;99.90;;;;;;4971614;28;20426;-77
2023/03/23 12:58:44;;;;;;;3.78;0.80;;;16.10;99.90;;;;;;4972695;28;20408;-74
2023/03/23 13:01:29;;;;;;;6.63;0.70;;;15.90;99.90;;;;;;4963257;28;20421;-74
2023/03/23 13:04:15;;;;;;;6.80;0.80;;;15.60;99.90;;;;;;4976509;28;20038;-74
2023/03/23 13:06:44;;;;;;;13.00;1.13;;;15.10;99.90;;;;;;4995324;28;20049;-83
2023/03/23 13:09:28;;;;;;;8.05;0.73;;;14.40;99.90;;;;;;4974855;28;20036;-79
2023/03/23 13:11:58;;;;;;;5.00;0.95;;;13.80;99.90;;;;;;4983470;28;20056;-80
2023/03/23 13:14:36;;;;;;;7.00;2.35;;;13.50;99.90;;;;;;4970628;28;20910;-77
2023/03/23 13:17:35;;;;;;;7.60;2.53;;;13.30;99.90;;;;;;4969974;28;20038;-82
2023/03/23 13:20:41;;;;;;;5.47;1.30;;;13.30;99.90;;;;;;4950227;28;20069;-81
2023/03/23 13:23:36;;;;;;;4.60;1.13;;;13.30;99.90;;;;;;4959550;28;20045;-80
2023/03/23 13:26:08;;;;;;;6.05;1.15;;;13.20;99.90;;;;;;4979477;28;20081;-79
2023/03/23 13:28:53;;;;;;;8.88;1.05;;;13.10;99.90;;;;;;4977468;28;20826;-79